Tiempo atmosférico en la estación meteorológica de Riaño, León (1090 m.)



Fecha
DESCASC
Temp. máxima en grados centígrados (hora)
DESCASC
Temp. mínima en grados centígrados (hora)
DESCASC
Temp. media en grados centígrados
DESCASC
Racha de viento máxima en m/sg (hora)
DESCASC
Velocidad máxima media en intervalos de 10 minutos(hora)
DESCASC
Precipitaciones diarias en mm
DESCASC
Precipitaciones de 00:00 a 06:00 en mm
DESCASC
Precipitaciones de 06:00 a 12:00 en mm
DESCASC
Precipitaciones de 12:00 a 18:00 en mm
DESCASC
Precipitaciones de 18:00 a 24:00 en mm
DESCASC
16-01-2020 7.9 (14:30) 5.3 (22:50) 6.6 20 (12:50) 10.83 (14:20) 10 2.2 2 0 5.8
15-01-2020 7.5 (15:00) 4.1 (00:40) 5.8 16.67 (04:30) 8.89 (04:30) 5.6 1.8 3.6 0 0.2
14-01-2020 5.4 (19:20) 0.1 (00:00) 2.8 11.11 (18:50) 6.39 (11:10) 1.2 0 0 0.2 1
13-01-2020 8.8 (14:50) -5.3 (06:40) 1.8 6.67 (15:00) 4.44 (17:00) 0 0 0 0 0
12-01-2020 9.1 (16:20) -5.4 (-00:0) 1.9 1.39 (09:00) 0.83 (09:00) 0 0 0 0 0
11-01-2020 6.1 (16:20) -2.9 (-00:0) 1.6 3.33 (03:20) 1.94 (02:50) 0 0 0 0 0
10-01-2020 5.1 (15:50) -1.1 (-00:0) 2 12.78 (03:20) 7.22 (14:20) 0.4 0 0.4 0 0
09-01-2020 10.4 (14:00) -1.6 (-00:0) 4.4 11.11 (22:00) 5.83 (22:00) 0.6 0 0 0 0.6
08-01-2020 12 (16:20) -2.8 (-00:0) 4.6 1.67 (17:10) 0.83 (19:00) 0 0 0 0 0
07-01-2020 9.5 (16:30) -4.9 (-00:0) 2.3 1.39 (01:10) 0.83 (12:20) 0 0 0 0 0
06-01-2020 7.3 (16:00) -4.4 (-00:0) 1.5 3.61 (17:50) 1.39 (17:20) 0.2 0 0 0.2 0
05-01-2020 8.8 (16:30) -3.7 (-00:0) 2.6 2.5 (03:20) 1.67 (03:20) 0 0 0 0 0
04-01-2020 7.2 (16:20) -1.8 (-00:0) 2.7 3.33 (08:40) 2.22 (08:20) 0 0 0 0 0
03-01-2020 4.9 (16:10) -2.5 (-00:0) 1.2 2.22 (09:50) 1.39 (09:50) 0.6 0 0 0.4 0.2
02-01-2020 8.9 (16:20) -5.3 (-00:0) 1.8 4.72 (18:00) 3.33 (16:40) 0 0 0 0 0
01-01-2020 8.5 (16:30) -6.6 (-00:0) 1 1.39 (12:40) 0.83 (12:40) 0 0 0 0 0
31-12-2019 8.4 (16:10) -5.9 (-00:0) 1.2 1.67 (02:30) 0.83 (02:00) 0 0 0 0 0
30-12-2019 -- (--) -- (--) -- -- (--) -- (--) -- 0 0 0.2 --
29-12-2019 8.9 (16:10) -4.8 (-00:0) 2 1.11 (16:50) 0.56 (13:50) 0 0 0 0 0
28-12-2019 8 (16:10) -5.1 (-00:0) 1.5 1.39 (02:50) 0.83 (13:20) 0.2 0 0.2 0 0
27-12-2019 4.4 (16:00) -4.6 (-00:0) -0.1 2.78 (02:30) 1.67 (01:30) 0 0 0 0 0
26-12-2019 7.6 (14:10) -0.2 (00:00) 3.7 7.5 (16:10) 4.72 (15:50) 0 0 0 0 0
25-12-2019 12.9 (15:50) 0.4 (00:00) 6.6 2.78 (22:20) 1.94 (17:10) 0 0 0 0 0
24-12-2019 10.7 (14:30) 3.3 (00:00) 7 4.17 (01:50) 2.5 (16:30) 0 0 0 0 0
23-12-2019 8.6 (15:40) -0.8 (-00:0) 3.9 4.72 (17:10) 3.33 (17:10) 0 0 0 0 0
22-12-2019 10.6 (14:40) 0.7 (00:00) 5.7 17.78 (18:00) 5.56 (14:10) 1.4 1 0 0.4 0
21-12-2019 10.6 (13:20) 0.8 (00:00) 5.7 23.33 (11:50) 7.5 (11:50) 9.4 0 3 3 3.4
20-12-2019 8 (00:00) 0.8 (00:00) 4.4 11.94 (03:50) 5 (03:50) 14.2 4.6 0.6 6.6 2.4
19-12-2019 9.4 (22:00) 5.6 (11:30) 7.5 25.56 (19:50) 12.22 (19:50) 88.4 19.6 13.2 20.4 35.2

Gráficas

Temp. máximas Temp. mínimas Temp. medias Precipitaciones Rachas de viento máximas Velocidades máximas media en intervalos de 10 minutos

Datos horarios

Fecha y hora oficial Temperatura (ºC) Velocidad del viento (km/h) Dirección del viento Racha (km/h) Dirección de racha Precipitación (mm) Presión (hPa) Tendencia (hPa) Humedad (%)
2020-01-17 23:00:00 0.5 3 Oeste 6 Noroeste 0 -- -- 93
2020-01-17 22:00:00 0.3 0 Calma 5 Noroeste 0 -- -- 92
2020-01-17 21:00:00 0.7 2 Sudoeste 8 Sudoeste 0 -- -- 89
2020-01-17 20:00:00 1.3 0 Calma 5 Noroeste 0 -- -- 87
2020-01-17 19:00:00 2.4 0 Calma 9 Sudoeste 0 -- -- 80
2020-01-17 18:00:00 4 4 Sudoeste 19 Sudoeste 0 -- -- 74
2020-01-17 17:00:00 5.5 7 Sudoeste 15 Sudoeste 0 -- -- 64
2020-01-17 16:00:00 6 3 Noroeste 14 Noroeste 0 -- -- 61
2020-01-17 15:00:00 5.4 3 Oeste 12 Oeste 0 -- -- 64
2020-01-17 14:00:00 6.3 6 Nordeste 8 Norte 0 -- -- 71
2020-01-17 13:00:00 6.4 4 Norte 8 Sudeste 0 -- -- 76
2020-01-17 12:00:00 6.3 3 Sur 14 Sur 0 -- -- 71
2020-01-17 11:00:00 4.7 10 Sur 14 Sudoeste 0 -- -- 82
2020-01-17 10:00:00 2 6 Sur 12 Sudoeste 0 -- -- 90
2020-01-17 09:00:00 1.3 7 Sur 13 Sudoeste 0 -- -- 89
2020-01-17 08:00:00 3 6 Oeste 20 Sudoeste 0 -- -- 81
2020-01-17 07:00:00 3.5 7 Oeste 29 Oeste 0 -- -- 82
2020-01-17 06:00:00 4.4 6 Oeste 26 Oeste 0 -- -- 79
2020-01-17 05:00:00 4.8 12 Oeste 32 Sudoeste 0 -- -- 83
2020-01-17 04:00:00 4.9 6 Oeste 26 Sudoeste 0 -- -- 84
2020-01-17 03:00:00 4.9 6 Oeste 24 Oeste 0.2 -- -- 85
2020-01-17 02:00:00 5.2 8 Sudoeste 38 Sudoeste 0 -- -- 84
2020-01-17 01:00:00 5.7 12 Sudoeste 38 Oeste 0 -- -- 83
2020-01-17 00:00:00 5.6 8 Oeste 36 Sur 0 -- -- 83
2020-01-16 23:00:00 5.3 16 Sudoeste 44 Sur 1.6 -- -- 90
2020-01-16 22:00:00 5.7 24 Sur 57 Sur 0.2 -- -- 89
2020-01-16 21:00:00 5.7 30 Sur 59 Oeste 0.8 -- -- 87
2020-01-16 20:00:00 5.8 25 Sudoeste 57 Sudoeste 1.2 -- -- 83
2020-01-16 19:00:00 5.8 21 Sur 40 Sur 2 -- -- 86
2020-01-16 18:00:00 6.9 24 Sur 55 Sudoeste 0 -- -- 79
2020-01-16 17:00:00 7.5 31 Sur 59 Sur 0 -- -- 75
2020-01-16 16:00:00 7.6 26 Sudoeste 56 Sur 0 -- -- 78
2020-01-16 15:00:00 7.8 32 Sur 67 Sur 0 -- -- 79
2020-01-16 14:00:00 7.4 38 Sur 67 Sudoeste 0 -- -- 82
2020-01-16 13:00:00 7 35 Sur 72 Sur 0 -- -- 90
2020-01-16 12:00:00 7.1 35 Sur 60 Sur 0.4 -- -- 93
2020-01-16 11:00:00 7.3 21 Sur 45 Sur 1.2 -- -- 92
2020-01-16 10:00:00 7.2 31 Sur 56 Sur 0.2 -- -- 91
2020-01-16 09:00:00 6.9 22 Sur 44 Sudoeste 0.2 -- -- 95
2020-01-16 08:00:00 7 15 Sudoeste 37 Sudoeste 0 -- -- 95
2020-01-16 07:00:00 7 17 Sur 37 Sudeste 0 -- -- 94
2020-01-16 06:00:00 7.1 24 Sur 41 Sudoeste 0 -- -- 94
2020-01-16 05:00:00 7.2 20 Sur 42 Sur 0 -- -- 89
2020-01-16 04:00:00 7.2 13 Sur 51 Sudoeste 0.6 -- -- 93
2020-01-16 03:00:00 7.3 19 Sur 39 Sur 1 -- -- 94
2020-01-16 02:00:00 6.6 21 Sudeste 35 Sudeste 0.4 -- -- 96
2020-01-16 01:00:00 6.9 12 Sur 37 Sudoeste 0.2 -- -- 94
2020-01-16 00:00:00 6.6 21 Sudeste 32 Sudeste 0.2 -- -- 95
2020-01-15 23:00:00 6.6 15 Sudeste 27 Sudeste 0 -- -- 90
2020-01-15 22:00:00 5.6 3 Sur 16 Sudeste 0 -- -- 88
2020-01-15 21:00:00 5.5 2 Sur 15 Sur 0 -- -- 88
2020-01-15 20:00:00 5.3 2 Sudoeste 15 Sur 0 -- -- 90
2020-01-15 19:00:00 5.4 3 Noroeste 18 Sur 0 -- -- 88
2020-01-15 18:00:00 6.6 5 Sudoeste 31 Sudoeste 0 -- -- 82
2020-01-15 17:00:00 7.2 9 Sur 14 Sudoeste 0 -- -- 81
2020-01-15 16:00:00 7.3 6 Sudoeste 23 Sur 0 -- -- 80
2020-01-15 15:00:00 7.5 15 Sur 27 Sudoeste 0 -- -- 81
2020-01-15 14:00:00 6.8 4 Este 19 Sur 0 -- -- 87
2020-01-15 13:00:00 6.4 6 Sudoeste 21 Sur 0 -- -- 91
2020-01-15 12:00:00 6 9 Sudoeste 24 Este 0 -- -- 93
2020-01-15 11:00:00 5.7 5 Sudoeste 28 Sudoeste 0.8 -- -- 92
2020-01-15 10:00:00 5.4 9 Sur 37 Sur 1.4 -- -- 94
2020-01-15 09:00:00 5.3 9 Sur 53 Sur 0.8 -- -- 93
2020-01-15 08:00:00 5.5 25 Sur 49 Sudoeste 0.4 -- -- 92
2020-01-15 07:00:00 5.5 27 Sur 56 Sur 0.2 -- -- 90
2020-01-15 06:00:00 5.4 27 Sur 49 Sur 0.2 -- -- 91
2020-01-15 05:00:00 5.4 18 Sur 60 Sur 0.2 -- -- 92
2020-01-15 04:00:00 5.2 26 Sur 47 Sur 0.4 -- -- 92
2020-01-15 03:00:00 4.8 10 Sur 34 Sur 0.2 -- -- 95
2020-01-15 02:00:00 4.5 11 Sur 25 Sudoeste 0.4 -- -- 95
2020-01-15 01:00:00 4.2 10 Sur 33 Oeste 0.4 -- -- 95
2020-01-15 00:00:00 4.3 14 Sudoeste 39 Sur 0 -- -- 94
2020-01-14 23:00:00 4.1 12 Sur 30 Sur 1 -- -- 94
2020-01-14 22:00:00 4.5 15 Sur 31 Sur 0 -- -- 90
2020-01-14 21:00:00 4.9 13 Sur 37 Sur 0 -- -- 86
2020-01-14 20:00:00 5.2 13 Sur 35 Sur 0 -- -- 85
2020-01-14 19:00:00 5.3 19 Sur 40 Sur 0 -- -- 82
2020-01-14 18:00:00 4.7 10 Sur 39 Sur 0 -- -- 87
2020-01-14 17:00:00 4.3 10 Sur 26 Sur 0 -- -- 90
2020-01-14 16:00:00 3.9 9 Sudoeste 33 Sur 0 -- -- 92
2020-01-14 15:00:00 3.1 6 Sur 28 Sudeste 0 -- -- 94
2020-01-14 14:00:00 2.5 13 Sudeste 28 Sudeste 0 -- -- 97
2020-01-14 13:00:00 1.8 16 Sudeste 23 Sudeste 0.2 -- -- 98
2020-01-14 12:00:00 1.6 14 Sudeste 31 Sudeste 0 -- -- 97
2020-01-14 11:00:00 1.7 23 Sudeste 31 Sudeste 0 -- -- 96
2020-01-14 10:00:00 1.8 18 Sudeste 26 Sudeste 0 -- -- 95
2020-01-14 09:00:00 1.4 10 Sudeste 15 Sudeste 0 -- -- 96
2020-01-14 08:00:00 1.1 0 Calma 8 Sudeste 0 -- -- 95
2020-01-14 07:00:00 1 3 Sudeste 15 Sur 0 -- -- 96
2020-01-14 06:00:00 0.9 9 Sur 15 Sudeste 0 -- -- 95
2020-01-14 05:00:00 0.8 9 Sur 18 Sur 0 -- -- 94
2020-01-14 04:00:00 0.8 14 Sudeste 19 Sudeste 0 -- -- 95
2020-01-14 03:00:00 0.9 8 Sudeste 15 Sudeste 0 -- -- 93
2020-01-14 02:00:00 0.6 6 Sur 13 Sur 0 -- -- 91
2020-01-14 01:00:00 0.6 10 Sur 15 Sur 0 -- -- 91
2020-01-14 00:00:00 0.1 3 Sudeste 20 Este 0 -- -- 88
2020-01-13 23:00:00 -0.5 4 Sur 18 Sur 0 -- -- 89
2020-01-13 22:00:00 -1.4 4 Sudoeste 8 Sudoeste 0 -- -- 90
2020-01-13 21:00:00 -1.5 3 Este 16 Sudoeste 0 -- -- 91
2020-01-13 20:00:00 -1.3 14 Sur 23 Sur 0 -- -- 89
2020-01-13 19:00:00 0.4 12 Sur 18 Sur 0 -- -- 81
2020-01-13 18:00:00 2.6 10 Sur 18 Sur 0 -- -- 68
2020-01-13 17:00:00 4.1 16 Sur 19 Sur 0 -- -- 60
2020-01-13 16:00:00 5 12 Sur 22 Sur 0 -- -- 54
2020-01-13 15:00:00 8.6 13 Sudoeste 24 Sur 0 -- -- 37
2020-01-13 14:00:00 6.6 13 Sudeste 19 Sudeste 0 -- -- 55
2020-01-13 13:00:00 2.1 3 Este 5 Sudeste 0 -- -- 79
2020-01-13 12:00:00 -0.8 2 Sur 3 Sur 0 -- -- 87
2020-01-13 11:00:00 -2.7 0 Calma 3 Nordeste 0 -- -- 93
2020-01-13 10:00:00 -4.4 3 Sudoeste 6 Sudoeste 0 -- -- 94
2020-01-13 09:00:00 -5 0 Calma 5 Sudoeste 0 -- -- 95
2020-01-13 08:00:00 -5.1 0 Calma 4 Sudoeste 0 -- -- 96
2020-01-13 07:00:00 -5.3 2 Sudoeste 5 Sudoeste 0 -- -- 96
2020-01-13 06:00:00 -5.1 0 Calma 7 Sudoeste 0 -- -- 95
2020-01-13 05:00:00 -5.1 0 Calma 4 Noroeste 0 -- -- 95
2020-01-13 04:00:00 -4.9 0 Calma 4 Sur 0 -- -- 95
2020-01-13 03:00:00 -4.4 0 Calma 2 Sur 0 -- -- 93
2020-01-13 02:00:00 -4 0 Calma 2 Sur 0 -- -- 92
2020-01-13 01:00:00 -3.2 0 Calma 4 Noroeste 0 -- -- 92
2020-01-13 00:00:00 -2.6 0 Calma 3 Sur 0 -- -- 90
2020-01-12 23:00:00 -1.7 0 Calma 4 Sur 0 -- -- 88
2020-01-12 22:00:00 -1.3 0 Calma 3 Noroeste 0 -- -- 86
2020-01-12 21:00:00 -0.6 0 Calma 4 Sur 0 -- -- 82
2020-01-12 20:00:00 0.4 0 Calma 4 Noroeste 0 -- -- 79
2020-01-12 19:00:00 1.8 0 Calma 2 Este 0 -- -- 76
2020-01-12 18:00:00 4.5 0 Calma 4 Norte 0 -- -- 67
2020-01-12 17:00:00 7.7 2 Noroeste 2 Norte 0 -- -- 51
2020-01-12 16:00:00 8.5 0 Calma 2 Nordeste 0 -- -- 42
2020-01-12 15:00:00 7 3 Nordeste 4 Nordeste 0 -- -- 56
2020-01-12 14:00:00 4.8 0 Calma 4 Sudeste 0 -- -- 64
2020-01-12 13:00:00 2.9 3 Sur 5 Sur 0 -- -- 70
2020-01-12 12:00:00 0.4 0 Calma 4 Sudeste 0 -- -- 83
2020-01-12 11:00:00 -1.3 0 Calma 4 Sudeste 0 -- -- 90
2020-01-12 10:00:00 -4 0 Calma 4 Este 0 -- -- 99
2020-01-12 09:00:00 -5.3 3 Este 5 Este 0 -- -- 98
2020-01-12 08:00:00 -5 0 Calma 3 Sudeste 0 -- -- 99
2020-01-12 07:00:00 -5.3 2 Noroeste 4 Noroeste 0 -- -- 98
2020-01-12 06:00:00 -4.7 0 Calma 2 Sur 0 -- -- 97
2020-01-12 05:00:00 -4.5 0 Calma 2 Sur 0 -- -- 97
2020-01-12 04:00:00 -4 0 Calma 4 Noroeste 0 -- -- 97
2020-01-12 03:00:00 -3.8 0 Calma 2 Sudeste 0 -- -- 98
2020-01-12 02:00:00 -3.5 0 Calma 4 Sur 0 -- -- 97
2020-01-12 01:00:00 -2.9 0 Calma 2 Norte 0 -- -- 97
2020-01-12 00:00:00 -2.4 0 Calma 3 Noroeste 0 -- -- 97
2020-01-11 23:00:00 -2.1 0 Calma 4 Sudoeste 0 -- -- 95
2020-01-11 22:00:00 -1.8 0 Calma 2 Sur 0 -- -- 95
2020-01-11 21:00:00 -1.2 0 Calma 2 Sur 0 -- -- 93
2020-01-11 20:00:00 -0.1 0 Calma 4 Sur 0 -- -- 91
2020-01-11 19:00:00 1 0 Calma 4 Noroeste 0 -- -- 85
2020-01-11 18:00:00 2.9 0 Calma 3 Sudoeste 0 -- -- 80
2020-01-11 17:00:00 5.4 2 Noroeste 4 Noroeste 0 -- -- 74
2020-01-11 16:00:00 5.9 0 Calma 6 Norte 0 -- -- 69
2020-01-11 15:00:00 5.2 3 Nordeste 5 Nordeste 0 -- -- 72
2020-01-11 14:00:00 3.5 3 Norte 5 Norte 0 -- -- 81
2020-01-11 13:00:00 1.3 3 Nordeste 5 Nordeste 0 -- -- 87
2020-01-11 12:00:00 -0.3 2 Nordeste 5 Este 0 -- -- 95
2020-01-11 11:00:00 -2.3 3 Sudeste 5 Este 0 -- -- 99
2020-01-11 10:00:00 -2.9 4 Este 9 Este 0 -- -- 100
2020-01-11 09:00:00 -2.8 4 Este 8 Este 0 -- -- 99
2020-01-11 08:00:00 -2.6 4 Sur 9 Sudeste 0 -- -- 98
2020-01-11 07:00:00 -2.3 4 Sudeste 9 Este 0 -- -- 99
2020-01-11 06:00:00 -1.8 5 Sudeste 9 Este 0 -- -- 99
2020-01-11 05:00:00 -1.8 3 Sudeste 10 Este 0 -- -- 99
2020-01-11 04:00:00 -1.2 6 Este 12 Este 0 -- -- 99
2020-01-11 03:00:00 -0.7 7 Este 10 Este 0 -- -- 99
2020-01-11 02:00:00 -0.6 3 Este 7 Sudeste 0 -- -- 96
2020-01-11 01:00:00 -0.3 7 Sudeste 9 Sudeste 0 -- -- 97
2020-01-11 00:00:00 -0.5 0 Calma 6 Este 0 -- -- 97
2020-01-10 23:00:00 -0.7 0 Calma 4 Sur 0 -- -- 96
2020-01-10 22:00:00 -0.6 0 Calma 4 Noroeste 0 -- -- 97
2020-01-10 21:00:00 -0.7 0 Calma 4 Sudoeste 0 -- -- 95
2020-01-10 20:00:00 0.3 0 Calma 4 Sudoeste 0 -- -- 93
2020-01-10 19:00:00 1.8 2 Oeste 13 Norte 0 -- -- 88
2020-01-10 18:00:00 2.9 5 Norte 18 Norte 0 -- -- 86
2020-01-10 17:00:00 4 13 Norte 22 Norte 0 -- -- 85
2020-01-10 16:00:00 5.1 13 Norte 22 Norte 0 -- -- 82
2020-01-10 15:00:00 4.5 9 Norte 37 Norte 0 -- -- 80
2020-01-10 14:00:00 4.1 24 Norte 35 Norte 0 -- -- 81
2020-01-10 13:00:00 4.4 14 Norte 22 Norte 0 -- -- 84
2020-01-10 12:00:00 3.5 10 Nordeste 35 Norte 0 -- -- 87
2020-01-10 11:00:00 3 13 Nordeste 26 Nordeste 0.2 -- -- 85
2020-01-10 10:00:00 2 14 Norte 27 Norte 0 -- -- 93
2020-01-10 09:00:00 1.9 15 Norte 24 Norte 0 -- -- 93
2020-01-10 08:00:00 2.2 19 Norte 33 Norte 0.2 -- -- 90
2020-01-10 07:00:00 2.2 18 Norte 28 Norte 0 -- -- 90
2020-01-10 06:00:00 2.3 16 Norte 26 Norte 0 -- -- 83
2020-01-10 05:00:00 2.4 12 Noroeste 34 Noroeste 0 -- -- 74
2020-01-10 04:00:00 2.5 17 Noroeste 46 Noroeste 0 -- -- 77
2020-01-10 03:00:00 2.8 16 Noroeste 40 Oeste 0 -- -- 76
2020-01-10 02:00:00 3 17 Norte 34 Norte 0 -- -- 78
2020-01-10 01:00:00 3.3 5 Oeste 23 Oeste 0 -- -- 75
2020-01-10 00:00:00 3 6 Norte 20 Noroeste 0 -- -- 78
2020-01-09 23:00:00 3.2 8 Noroeste 39 Noroeste 0 -- -- 74
2020-01-09 22:00:00 4 21 Noroeste 40 Noroeste 0 -- -- 81
2020-01-09 21:00:00 3.8 12 Noroeste 28 Norte 0 -- -- 81
2020-01-09 20:00:00 4.6 4 Noroeste 16 Noroeste 0 -- -- 87
2020-01-09 19:00:00 5.7 9 Noroeste 24 Noroeste 0.6 -- -- 90
2020-01-09 18:00:00 7.4 8 Sudoeste 22 Sudoeste 0 -- -- 82
2020-01-09 17:00:00 8.7 5 Noroeste 10 Oeste 0 -- -- 74
2020-01-09 16:00:00 9.2 3 Sudoeste 15 Noroeste 0 -- -- 74
2020-01-09 15:00:00 9.5 8 Nordeste 20 Sur 0 -- -- 78
2020-01-09 14:00:00 10.4 14 Sur 31 Sudoeste 0 -- -- 77
2020-01-09 13:00:00 5.4 3 Sudeste 8 Noroeste 0 -- -- 91
2020-01-09 12:00:00 3.3 0 Calma 3 Nordeste 0 -- -- 89
2020-01-09 11:00:00 2.2 0 Calma 5 Sur 0 -- -- 89
2020-01-09 10:00:00 0.6 0 Calma 8 Sudoeste 0 -- -- 96
2020-01-09 09:00:00 -0.2 0 Calma 4 Noroeste 0 -- -- 97
2020-01-09 08:00:00 -0.7 0 Calma 3 Sudeste 0 -- -- 98
2020-01-09 07:00:00 -1.4 0 Calma 7 Sur 0 -- -- 97
2020-01-09 06:00:00 -1.4 0 Calma 6 Sudoeste 0 -- -- 96
2020-01-09 05:00:00 -1.2 0 Calma 5 Sur 0 -- -- 96
2020-01-09 04:00:00 -1 0 Calma 4 Sudoeste 0 -- -- 95
2020-01-09 03:00:00 -0.8 0 Calma 5 Sudoeste 0 -- -- 93
2020-01-09 02:00:00 -0.3 2 Noroeste 5 Sudoeste 0 -- -- 92
2020-01-09 01:00:00 0 0 Calma 2 Sudoeste 0 -- -- 90
2020-01-09 00:00:00 0.8 0 Calma 3 Sur 0 -- -- 88
2020-01-08 23:00:00 1.7 0 Calma 2 Norte 0 -- -- 86
2020-01-08 22:00:00 1.6 0 Calma 2 Sur 0 -- -- 85
2020-01-08 21:00:00 2.5 0 Calma 2 Sudoeste 0 -- -- 81
2020-01-08 20:00:00 4 0 Calma 4 Norte 0 -- -- 76
2020-01-08 19:00:00 5.2 3 Noroeste 6 Noroeste 0 -- -- 70
2020-01-08 18:00:00 7.4 0 Calma 6 Sudoeste 0 -- -- 63
2020-01-08 17:00:00 10.8 0 Calma 3 Noroeste 0 -- -- 53
2020-01-08 16:00:00 11.3 0 Calma 3 Nordeste 0 -- -- 54
2020-01-08 15:00:00 9.2 0 Calma 4 Nordeste 0 -- -- 61
2020-01-08 14:00:00 7.6 2 Nordeste 4 Este 0 -- -- 66
2020-01-08 13:00:00 5.6 2 Este 4 Nordeste 0 -- -- 70
2020-01-08 12:00:00 3.6 0 Calma 5 Nordeste 0 -- -- 73
2020-01-08 11:00:00 1.6 3 Sur 5 Sur 0 -- -- 81
2020-01-08 10:00:00 -1.8 0 Calma 2 Sur 0 -- -- 95
2020-01-08 09:00:00 -2.8 0 Calma 2 Sur 0 -- -- 94
2020-01-08 08:00:00 -2.8 0 Calma 3 Sur 0 -- -- 94
2020-01-08 07:00:00 -2.6 0 Calma 4 Sudoeste 0 -- -- 93
2020-01-08 06:00:00 -2.5 0 Calma 3 Sur 0 -- -- 92
2020-01-08 05:00:00 -2.3 0 Calma 0 Calma 0 -- -- 93
2020-01-08 04:00:00 -2.1 0 Calma 2 Sur 0 -- -- 92
2020-01-08 03:00:00 -1.9 0 Calma 0 Calma 0 -- -- 90
2020-01-08 02:00:00 -1.8 0 Calma 2 Noroeste 0 -- -- 90
2020-01-08 01:00:00 -1.4 0 Calma 2 Sur 0 -- -- 89
2020-01-08 00:00:00 -0.9 0 Calma 4 Noroeste 0 -- -- 88
2020-01-07 23:00:00 -0.6 0 Calma 2 Sudeste 0 -- -- 86
2020-01-07 22:00:00 -0.1 0 Calma 2 Noroeste 0 -- -- 84
2020-01-07 21:00:00 0.4 2 Noroeste 4 Norte 0 -- -- 81
2020-01-07 20:00:00 1.5 0 Calma 3 Sur 0 -- -- 80
2020-01-07 19:00:00 3 0 Calma 2 Noroeste 0 -- -- 71
2020-01-07 18:00:00 5.1 0 Calma 4 Norte 0 -- -- 62
2020-01-07 17:00:00 8 0 Calma 4 Noroeste 0 -- -- 58
2020-01-07 16:00:00 9 0 Calma 3 Nordeste 0 -- -- 52
2020-01-07 15:00:00 7.6 2 Nordeste 3 Norte 0 -- -- 51
2020-01-07 14:00:00 5.6 0 Calma 4 Nordeste 0 -- -- 57
2020-01-07 13:00:00 3.5 0 Calma 4 Nordeste 0 -- -- 71
2020-01-07 12:00:00 1.7 3 Nordeste 4 Nordeste 0 -- -- 80
2020-01-07 11:00:00 -0.8 0 Calma 4 Sur 0 -- -- 86
2020-01-07 10:00:00 -3.4 0 Calma 3 Noroeste 0 -- -- 97
2020-01-07 09:00:00 -4.9 0 Calma 2 Sur 0 -- -- 95
2020-01-07 08:00:00 -4.6 0 Calma 5 Noroeste 0 -- -- 96
2020-01-07 07:00:00 -4.4 0 Calma 2 Sur 0 -- -- 95
2020-01-07 06:00:00 -3.9 0 Calma 2 Noroeste 0 -- -- 93
2020-01-07 05:00:00 -3.5 0 Calma 0 Calma 0 -- -- 92
2020-01-07 04:00:00 -3.5 0 Calma 2 Sur 0 -- -- 90
2020-01-07 03:00:00 -3 0 Calma 2 Noroeste 0 -- -- 90
2020-01-07 02:00:00 -2.8 2 Sur 5 Noroeste 0 -- -- 89
2020-01-07 01:00:00 -2.4 0 Calma 4 Sur 0 -- -- 87
2020-01-07 00:00:00 -1.6 0 Calma 3 Noroeste 0 -- -- 84
2020-01-06 23:00:00 -0.8 0 Calma 4 Noroeste 0 -- -- 83
2020-01-06 22:00:00 0 0 Calma 4 Noroeste 0 -- -- 82
2020-01-06 21:00:00 0.5 0 Calma 7 Sur 0 -- -- 78
2020-01-06 20:00:00 1.8 0 Calma 9 Norte 0 -- -- 78
2020-01-06 19:00:00 2.9 2 Sur 8 Noroeste 0 -- -- 76
2020-01-06 18:00:00 5.3 4 Sur 13 Sudeste 0 -- -- 67
2020-01-06 17:00:00 6.2 0 Calma 5 Norte 0 -- -- 74
2020-01-06 16:00:00 7.3 0 Calma 5 Norte 0 -- -- 69
2020-01-06 15:00:00 6.9 3 Este 5 Sur 0 -- -- 68
2020-01-06 14:00:00 5.4 4 Norte 5 Norte 0.2 -- -- 72
2020-01-06 13:00:00 3.6 3 Nordeste 4 Norte 0 -- -- 77
2020-01-06 12:00:00 1.3 2 Nordeste 6 Norte 0 -- -- 90
2020-01-06 11:00:00 -0.6 2 Nordeste 3 Nordeste 0 -- -- 93
2020-01-06 10:00:00 -3.5 0 Calma 2 Sur 0 -- -- 99